GLO2742 SAVC-SABE
Flight info
| Callsign | GLO2742 |
|---|---|
| Flight time | N/A |
| Altitude | 35000 |
| Route | GATUD1G GATUD UP664 TRE UT693 BCA UW22 VALOS VALOS9R |
| Aircraft | B738/M-SDE2E3FGHIRWXY/LB1 |
Departure
| Time | 2026-04-21 18:50 |
|---|---|
| Airport | General Enrique Mosconi International Airport (SAVC) |
Arrival
| Time | N/A |
|---|---|
| Airport | Aeroparque Jorge Newbery (SABE) |
| Time | Latitude | Longitude | Altitude | Speed | Heading |
|---|---|---|---|---|---|
| 2026-04-21 18:37 | -45.78954 | -67.46904 | 198 ft | 0 kts | 237° |
| 2026-04-21 18:43 | -45.78948 | -67.46890 | 198 ft | 2 kts | 238° |
| 2026-04-21 18:44 | -45.78940 | -67.46866 | 198 ft | 3 kts | 255° |
| 2026-04-21 18:44 | -45.78938 | -67.46837 | 198 ft | 3 kts | 272° |
| 2026-04-21 18:44 | -45.78941 | -67.46809 | 198 ft | 3 kts | 289° |
| 2026-04-21 18:44 | -45.78950 | -67.46782 | 198 ft | 3 kts | 303° |
| 2026-04-21 18:45 | -45.78964 | -67.46760 | 198 ft | 3 kts | 317° |
| 2026-04-21 18:45 | -45.78975 | -67.46747 | 198 ft | 0 kts | 326° |
| 2026-04-21 18:46 | -45.78967 | -67.46755 | 198 ft | 5 kts | 326° |
| 2026-04-21 18:46 | -45.78906 | -67.46791 | 198 ft | 14 kts | 355° |
| 2026-04-21 18:46 | -45.78820 | -67.46792 | 198 ft | 10 kts | 359° |
| 2026-04-21 18:46 | -45.78757 | -67.46777 | 198 ft | 11 kts | 59° |
| 2026-04-21 18:47 | -45.78734 | -67.46622 | 198 ft | 21 kts | 79° |
| 2026-04-21 18:47 | -45.78701 | -67.46369 | 198 ft | 30 kts | 79° |
| 2026-04-21 18:47 | -45.78660 | -67.46043 | 198 ft | 36 kts | 79° |
| 2026-04-21 18:47 | -45.78610 | -67.45659 | 198 ft | 42 kts | 79° |
| 2026-04-21 18:48 | -45.78560 | -67.45270 | 198 ft | 38 kts | 79° |
| 2026-04-21 18:48 | -45.78514 | -67.44943 | 198 ft | 23 kts | 68° |
| 2026-04-21 18:48 | -45.78414 | -67.44829 | 198 ft | 15 kts | 13° |
| 2026-04-21 18:48 | -45.78312 | -67.44837 | 198 ft | 15 kts | 316° |
| 2026-04-21 18:49 | -45.78308 | -67.44919 | 198 ft | 0 kts | 259° |
| 2026-04-21 18:49 | -45.78327 | -67.45062 | 198 ft | 45 kts | 259° |
| 2026-04-21 18:49 | -45.78384 | -67.45497 | 198 ft | 89 kts | 261° |
| 2026-04-21 18:49 | -45.78604 | -67.47176 | 215 ft | 163 kts | 259° |
| 2026-04-21 18:50 | -45.78684 | -67.47792 | 303 ft | 175 kts | 259° |
| 2026-04-21 18:50 | -45.78965 | -67.49510 | 916 ft | 186 kts | 253° |
| 2026-04-21 18:50 | -45.79469 | -67.51255 | 1669 ft | 201 kts | 249° |
| 2026-04-21 18:50 | -45.80140 | -67.53073 | 2299 ft | 212 kts | 245° |
| 2026-04-21 18:51 | -45.80880 | -67.54985 | 2930 ft | 227 kts | 246° |
| 2026-04-21 18:51 | -45.81679 | -67.56985 | 3711 ft | 227 kts | 247° |
| 2026-04-21 18:51 | -45.82328 | -67.58912 | 5042 ft | 205 kts | 256° |
| 2026-04-21 18:51 | -45.82430 | -67.60924 | 5872 ft | 204 kts | 278° |
| 2026-04-21 18:52 | -45.82085 | -67.62892 | 6627 ft | 207 kts | 292° |
| 2026-04-21 18:52 | -45.81300 | -67.64672 | 7436 ft | 212 kts | 309° |
| 2026-04-21 18:52 | -45.80179 | -67.66039 | 8228 ft | 217 kts | 319° |
| 2026-04-21 18:52 | -45.78924 | -67.67256 | 9012 ft | 219 kts | 322° |
| 2026-04-21 18:53 | -45.77625 | -67.68438 | 9793 ft | 221 kts | 322° |
| 2026-04-21 18:53 | -45.76318 | -67.69630 | 10540 ft | 224 kts | 322° |
| 2026-04-21 18:53 | -45.74995 | -67.70839 | 11263 ft | 227 kts | 322° |
| 2026-04-21 18:53 | -45.73652 | -67.72061 | 11977 ft | 230 kts | 324° |
| 2026-04-21 18:54 | -45.72094 | -67.72763 | 12650 ft | 245 kts | 349° |
| 2026-04-21 18:54 | -45.70350 | -67.72371 | 13269 ft | 266 kts | 12° |
| 2026-04-21 18:54 | -45.68679 | -67.71074 | 13774 ft | 286 kts | 27° |
| 2026-04-21 18:54 | -45.67019 | -67.69379 | 14197 ft | 301 kts | 28° |
| 2026-04-21 18:55 | -45.65890 | -67.68158 | 14424 ft | 313 kts | 30° |
| 2026-04-21 18:55 | -45.63458 | -67.65606 | 14842 ft | 334 kts | 28° |
| 2026-04-21 18:55 | -45.61498 | -67.63672 | 15102 ft | 351 kts | 27° |
| 2026-04-21 18:55 | -45.59432 | -67.61658 | 15357 ft | 368 kts | 27° |
| 2026-04-21 18:56 | -45.57269 | -67.59564 | 15696 ft | 380 kts | 27° |
| 2026-04-21 18:56 | -45.55055 | -67.57432 | 16239 ft | 386 kts | 27° |
| 2026-04-21 18:56 | -45.52840 | -67.55303 | 16814 ft | 390 kts | 27° |
| 2026-04-21 18:56 | -45.50559 | -67.53113 | 17195 ft | 401 kts | 27° |
| 2026-04-21 18:57 | -45.48231 | -67.50882 | 17780 ft | 404 kts | 27° |
| 2026-04-21 18:57 | -45.45896 | -67.48643 | 18582 ft | 400 kts | 27° |
| 2026-04-21 18:57 | -45.43594 | -67.46423 | 19273 ft | 401 kts | 26° |
| 2026-04-21 18:57 | -45.41281 | -67.44202 | 19856 ft | 403 kts | 26° |
| 2026-04-21 18:58 | -45.38944 | -67.41967 | 20351 ft | 407 kts | 26° |
| 2026-04-21 18:58 | -45.36579 | -67.39711 | 20862 ft | 410 kts | 26° |
| 2026-04-21 18:58 | -45.34196 | -67.37441 | 21285 ft | 416 kts | 26° |
| 2026-04-21 18:58 | -45.31763 | -67.35127 | 21576 ft | 424 kts | 26° |
| 2026-04-21 18:59 | -45.29306 | -67.32794 | 22103 ft | 425 kts | 26° |
| 2026-04-21 18:59 | -45.26868 | -67.30482 | 22568 ft | 428 kts | 26° |
| 2026-04-21 18:59 | -45.24386 | -67.28129 | 23039 ft | 430 kts | 26° |
| 2026-04-21 18:59 | -45.21887 | -67.25763 | 23456 ft | 433 kts | 26° |
| 2026-04-21 19:00 | -45.19355 | -67.23364 | 23870 ft | 436 kts | 26° |
| 2026-04-21 19:00 | -45.16824 | -67.20970 | 24263 ft | 440 kts | 26° |
| 2026-04-21 19:00 | -45.14290 | -67.18558 | 24578 ft | 444 kts | 26° |
| 2026-04-21 19:00 | -45.11709 | -67.16113 | 24977 ft | 447 kts | 26° |
| 2026-04-21 19:01 | -45.09110 | -67.13660 | 25261 ft | 453 kts | 27° |
| 2026-04-21 19:01 | -45.06459 | -67.11164 | 25331 ft | 464 kts | 27° |
| 2026-04-21 19:01 | -45.03726 | -67.08596 | 25363 ft | 476 kts | 28° |
| 2026-04-21 19:01 | -45.00962 | -67.06003 | 25414 ft | 486 kts | 30° |
| 2026-04-21 19:02 | -44.98141 | -67.03362 | 25907 ft | 482 kts | 37° |
| 2026-04-21 19:02 | -44.96125 | -67.01471 | 26367 ft | 480 kts | 36° |
| 2026-04-21 19:02 | -44.93585 | -66.99095 | 26655 ft | 481 kts | 36° |
| 2026-04-21 19:02 | -44.90792 | -66.96484 | 27026 ft | 480 kts | 36° |
| 2026-04-21 19:03 | -44.87979 | -66.93858 | 27204 ft | 484 kts | 36° |
| 2026-04-21 19:03 | -44.85157 | -66.91230 | 27458 ft | 486 kts | 36° |
| 2026-04-21 19:03 | -44.82399 | -66.88664 | 28042 ft | 479 kts | 37° |
| 2026-04-21 19:03 | -44.79616 | -66.86080 | 28366 ft | 478 kts | 37° |
| 2026-04-21 19:04 | -44.76821 | -66.83487 | 28485 ft | 483 kts | 37° |
| 2026-04-21 19:04 | -44.74006 | -66.80879 | 28708 ft | 484 kts | 37° |
| 2026-04-21 19:04 | -44.72142 | -66.79153 | 28809 ft | 486 kts | 36° |
| 2026-04-21 19:05 | -44.65472 | -66.72989 | 29046 ft | 496 kts | 36° |
| 2026-04-21 19:05 | -44.63527 | -66.71194 | 29326 ft | 494 kts | 36° |
| 2026-04-21 19:05 | -44.60704 | -66.68585 | 29711 ft | 491 kts | 36° |
| 2026-04-21 19:05 | -44.57842 | -66.65924 | 29901 ft | 493 kts | 36° |
| 2026-04-21 19:06 | -44.54971 | -66.63264 | 30127 ft | 495 kts | 36° |
| 2026-04-21 19:06 | -44.52091 | -66.60604 | 30259 ft | 498 kts | 35° |
| 2026-04-21 19:06 | -44.49192 | -66.57933 | 30525 ft | 498 kts | 35° |
| 2026-04-21 19:06 | -44.46293 | -66.55266 | 30753 ft | 499 kts | 34° |
| 2026-04-21 19:07 | -44.43386 | -66.52596 | 30842 ft | 503 kts | 34° |
| 2026-04-21 19:07 | -44.40496 | -66.49926 | 31091 ft | 503 kts | 34° |
| 2026-04-21 19:07 | -44.37571 | -66.47237 | 31336 ft | 503 kts | 33° |
| 2026-04-21 19:07 | -44.34624 | -66.44539 | 31507 ft | 505 kts | 33° |
| 2026-04-21 19:08 | -44.31676 | -66.41849 | 31753 ft | 505 kts | 33° |
| 2026-04-21 19:08 | -44.28736 | -66.39171 | 32016 ft | 504 kts | 33° |
| 2026-04-21 19:08 | -44.25790 | -66.36493 | 32279 ft | 504 kts | 33° |
| 2026-04-21 19:08 | -44.22853 | -66.33825 | 32527 ft | 504 kts | 32° |
| 2026-04-21 19:09 | -44.19959 | -66.31159 | 32803 ft | 504 kts | 33° |
| 2026-04-21 19:09 | -44.17259 | -66.28072 | 33116 ft | 504 kts | 41° |
| 2026-04-21 19:09 | -44.14865 | -66.24479 | 33341 ft | 506 kts | 50° |
| 2026-04-21 19:09 | -44.12834 | -66.20463 | 33576 ft | 507 kts | 57° |
| 2026-04-21 19:10 | -44.11082 | -66.16185 | 33806 ft | 508 kts | 60° |
| 2026-04-21 19:10 | -44.09404 | -66.11922 | 33944 ft | 509 kts | 59° |
| 2026-04-21 19:10 | -44.07632 | -66.07531 | 33157 ft | 530 kts | 59° |
| 2026-04-21 19:11 | -44.04356 | -65.98542 | 33627 ft | 497 kts | 60° |
| 2026-04-21 19:11 | -44.02829 | -65.94238 | 32231 ft | 504 kts | 77° |
| 2026-04-21 19:11 | -44.03649 | -65.89439 | 28180 ft | 554 kts | 139° |
| 2026-04-21 19:11 | -44.04583 | -65.88293 | 27366 ft | 554 kts | 154° |